sensor_id;sensor_type;location;lat;lon;timestamp;P1;durP1;ratioP1;P2;durP2;ratioP2
50884;SDS011;36865;-33.406;-70.534;2022-08-27T00:00:45;30.85;;;18.58;;
50884;SDS011;36865;-33.406;-70.534;2022-08-27T00:03:12;39.28;;;24.33;;
50884;SDS011;36865;-33.406;-70.534;2022-08-27T00:05:39;37.97;;;23.17;;
50884;SDS011;36865;-33.406;-70.534;2022-08-27T00:08:06;33.35;;;22.65;;
50884;SDS011;36865;-33.406;-70.534;2022-08-27T00:10:34;38.42;;;24.10;;
50884;SDS011;36865;-33.406;-70.534;2022-08-27T00:13:01;36.15;;;23.10;;
50884;SDS011;36865;-33.406;-70.534;2022-08-27T00:15:27;34.13;;;22.35;;
50884;SDS011;36865;-33.406;-70.534;2022-08-27T00:17:54;32.28;;;20.25;;
50884;SDS011;36865;-33.406;-70.534;2022-08-27T00:20:23;25.38;;;15.90;;
50884;SDS011;36865;-33.406;-70.534;2022-08-27T00:22:51;24.00;;;14.23;;
50884;SDS011;36865;-33.406;-70.534;2022-08-27T00:25:18;22.73;;;13.70;;
50884;SDS011;36865;-33.406;-70.534;2022-08-27T00:27:45;21.70;;;12.82;;
50884;SDS011;36865;-33.406;-70.534;2022-08-27T00:30:13;22.45;;;13.95;;
50884;SDS011;36865;-33.406;-70.534;2022-08-27T00:32:41;20.35;;;12.25;;
50884;SDS011;36865;-33.406;-70.534;2022-08-27T00:35:08;20.30;;;11.60;;
50884;SDS011;36865;-33.406;-70.534;2022-08-27T00:37:43;21.88;;;13.48;;
50884;SDS011;36865;-33.406;-70.534;2022-08-27T00:40:18;20.42;;;12.20;;
50884;SDS011;36865;-33.406;-70.534;2022-08-27T00:42:45;18.77;;;11.25;;
50884;SDS011;36865;-33.406;-70.534;2022-08-27T00:49:16;23.05;;;13.10;;
50884;SDS011;36865;-33.406;-70.534;2022-08-27T00:54:50;19.02;;;10.73;;
50884;SDS011;36865;-33.406;-70.534;2022-08-27T00:57:19;17.45;;;10.10;;
50884;SDS011;36865;-33.406;-70.534;2022-08-27T00:59:46;19.50;;;11.13;;
50884;SDS011;36865;-33.406;-70.534;2022-08-27T01:02:13;18.13;;;10.45;;
50884;SDS011;36865;-33.406;-70.534;2022-08-27T01:05:02;18.70;;;10.10;;
50884;SDS011;36865;-33.406;-70.534;2022-08-27T01:07:42;19.77;;;10.38;;
50884;SDS011;36865;-33.406;-70.534;2022-08-27T01:10:15;17.80;;;9.70;;
50884;SDS011;36865;-33.406;-70.534;2022-08-27T01:12:52;18.60;;;10.57;;
50884;SDS011;36865;-33.406;-70.534;2022-08-27T01:15:23;18.55;;;10.57;;
50884;SDS011;36865;-33.406;-70.534;2022-08-27T01:18:11;20.98;;;12.20;;
50884;SDS011;36865;-33.406;-70.534;2022-08-27T01:23:34;17.33;;;10.52;;
50884;SDS011;36865;-33.406;-70.534;2022-08-27T01:26:20;19.37;;;11.73;;
50884;SDS011;36865;-33.406;-70.534;2022-08-27T01:28:48;21.55;;;12.73;;
50884;SDS011;36865;-33.406;-70.534;2022-08-27T01:31:23;21.30;;;12.40;;
50884;SDS011;36865;-33.406;-70.534;2022-08-27T01:33:58;21.30;;;12.85;;
50884;SDS011;36865;-33.406;-70.534;2022-08-27T01:36:33;18.55;;;11.20;;
50884;SDS011;36865;-33.406;-70.534;2022-08-27T01:39:03;17.92;;;10.40;;
50884;SDS011;36865;-33.406;-70.534;2022-08-27T01:41:29;19.77;;;11.38;;
50884;SDS011;36865;-33.406;-70.534;2022-08-27T01:43:56;18.63;;;10.13;;
50884;SDS011;36865;-33.406;-70.534;2022-08-27T01:46:31;17.08;;;9.60;;
50884;SDS011;36865;-33.406;-70.534;2022-08-27T01:49:23;15.68;;;8.45;;
50884;SDS011;36865;-33.406;-70.534;2022-08-27T01:51:50;14.13;;;7.93;;
50884;SDS011;36865;-33.406;-70.534;2022-08-27T01:54:17;15.13;;;7.85;;
50884;SDS011;36865;-33.406;-70.534;2022-08-27T01:56:43;14.50;;;8.20;;
50884;SDS011;36865;-33.406;-70.534;2022-08-27T01:59:13;14.55;;;7.68;;
50884;SDS011;36865;-33.406;-70.534;2022-08-27T02:02:16;14.90;;;7.90;;
50884;SDS011;36865;-33.406;-70.534;2022-08-27T02:04:39;14.07;;;7.40;;
50884;SDS011;36865;-33.406;-70.534;2022-08-27T02:07:06;15.52;;;7.72;;
50884;SDS011;36865;-33.406;-70.534;2022-08-27T02:09:33;14.52;;;7.45;;
50884;SDS011;36865;-33.406;-70.534;2022-08-27T02:12:00;13.65;;;7.63;;
50884;SDS011;36865;-33.406;-70.534;2022-08-27T02:14:27;15.25;;;7.90;;
50884;SDS011;36865;-33.406;-70.534;2022-08-27T02:16:54;15.02;;;8.15;;
50884;SDS011;36865;-33.406;-70.534;2022-08-27T02:19:20;14.68;;;7.90;;
50884;SDS011;36865;-33.406;-70.534;2022-08-27T02:21:50;15.60;;;8.02;;
50884;SDS011;36865;-33.406;-70.534;2022-08-27T02:24:17;17.55;;;9.77;;
50884;SDS011;36865;-33.406;-70.534;2022-08-27T02:26:43;18.23;;;10.00;;
50884;SDS011;36865;-33.406;-70.534;2022-08-27T02:29:13;17.83;;;9.73;;
50884;SDS011;36865;-33.406;-70.534;2022-08-27T02:31:39;16.83;;;8.93;;
50884;SDS011;36865;-33.406;-70.534;2022-08-27T02:34:06;14.68;;;7.82;;
50884;SDS011;36865;-33.406;-70.534;2022-08-27T02:36:34;17.85;;;9.35;;
50884;SDS011;36865;-33.406;-70.534;2022-08-27T02:39:02;20.67;;;11.65;;
50884;SDS011;36865;-33.406;-70.534;2022-08-27T02:41:30;17.55;;;9.65;;
50884;SDS011;36865;-33.406;-70.534;2022-08-27T02:43:56;16.95;;;9.55;;
50884;SDS011;36865;-33.406;-70.534;2022-08-27T02:46:23;17.83;;;9.18;;
50884;SDS011;36865;-33.406;-70.534;2022-08-27T02:48:49;15.25;;;8.82;;
50884;SDS011;36865;-33.406;-70.534;2022-08-27T02:51:16;15.43;;;8.35;;
50884;SDS011;36865;-33.406;-70.534;2022-08-27T02:53:49;16.17;;;8.80;;
50884;SDS011;36865;-33.406;-70.534;2022-08-27T02:56:16;17.27;;;9.65;;
50884;SDS011;36865;-33.406;-70.534;2022-08-27T02:58:42;17.25;;;9.93;;
50884;SDS011;36865;-33.406;-70.534;2022-08-27T03:01:09;17.13;;;9.55;;
50884;SDS011;36865;-33.406;-70.534;2022-08-27T03:03:36;15.75;;;8.80;;
50884;SDS011;36865;-33.406;-70.534;2022-08-27T03:06:03;16.08;;;8.73;;
50884;SDS011;36865;-33.406;-70.534;2022-08-27T03:08:29;15.77;;;8.80;;
50884;SDS011;36865;-33.406;-70.534;2022-08-27T03:10:56;17.38;;;9.30;;
50884;SDS011;36865;-33.406;-70.534;2022-08-27T03:13:23;17.50;;;10.13;;
50884;SDS011;36865;-33.406;-70.534;2022-08-27T03:15:50;19.33;;;10.90;;
50884;SDS011;36865;-33.406;-70.534;2022-08-27T03:18:20;22.30;;;13.32;;
50884;SDS011;36865;-33.406;-70.534;2022-08-27T03:20:51;25.25;;;15.20;;
50884;SDS011;36865;-33.406;-70.534;2022-08-27T03:23:19;23.60;;;14.20;;
50884;SDS011;36865;-33.406;-70.534;2022-08-27T03:25:53;21.08;;;12.70;;
50884;SDS011;36865;-33.406;-70.534;2022-08-27T03:28:22;19.90;;;11.63;;
50884;SDS011;36865;-33.406;-70.534;2022-08-27T03:30:54;18.35;;;10.60;;
50884;SDS011;36865;-33.406;-70.534;2022-08-27T03:33:29;17.27;;;9.43;;
50884;SDS011;36865;-33.406;-70.534;2022-08-27T03:36:01;16.08;;;9.13;;
50884;SDS011;36865;-33.406;-70.534;2022-08-27T03:38:28;15.88;;;8.20;;
50884;SDS011;36865;-33.406;-70.534;2022-08-27T03:40:55;15.95;;;8.60;;
50884;SDS011;36865;-33.406;-70.534;2022-08-27T03:43:22;15.23;;;8.23;;
50884;SDS011;36865;-33.406;-70.534;2022-08-27T03:45:49;16.05;;;8.57;;
50884;SDS011;36865;-33.406;-70.534;2022-08-27T03:48:17;15.63;;;8.65;;
50884;SDS011;36865;-33.406;-70.534;2022-08-27T03:50:44;14.77;;;8.13;;
50884;SDS011;36865;-33.406;-70.534;2022-08-27T03:53:13;14.80;;;8.13;;
50884;SDS011;36865;-33.406;-70.534;2022-08-27T03:55:40;15.30;;;8.88;;
50884;SDS011;36865;-33.406;-70.534;2022-08-27T03:58:10;16.08;;;8.88;;
50884;SDS011;36865;-33.406;-70.534;2022-08-27T04:00:38;15.95;;;8.45;;
50884;SDS011;36865;-33.406;-70.534;2022-08-27T04:03:05;16.08;;;8.88;;
50884;SDS011;36865;-33.406;-70.534;2022-08-27T04:05:33;16.17;;;9.15;;
50884;SDS011;36865;-33.406;-70.534;2022-08-27T04:08:01;18.23;;;10.27;;
50884;SDS011;36865;-33.406;-70.534;2022-08-27T04:10:28;17.67;;;10.25;;
50884;SDS011;36865;-33.406;-70.534;2022-08-27T04:12:54;17.25;;;9.98;;
50884;SDS011;36865;-33.406;-70.534;2022-08-27T04:15:21;18.65;;;11.40;;
50884;SDS011;36865;-33.406;-70.534;2022-08-27T04:17:48;22.08;;;12.77;;
50884;SDS011;36865;-33.406;-70.534;2022-08-27T04:20:14;19.23;;;11.70;;
50884;SDS011;36865;-33.406;-70.534;2022-08-27T04:22:41;18.58;;;10.50;;
50884;SDS011;36865;-33.406;-70.534;2022-08-27T04:25:08;17.92;;;10.13;;
50884;SDS011;36865;-33.406;-70.534;2022-08-27T04:27:34;19.20;;;11.02;;
50884;SDS011;36865;-33.406;-70.534;2022-08-27T04:30:01;24.55;;;14.18;;
50884;SDS011;36865;-33.406;-70.534;2022-08-27T04:32:28;24.35;;;14.80;;
50884;SDS011;36865;-33.406;-70.534;2022-08-27T04:34:55;22.63;;;13.88;;
50884;SDS011;36865;-33.406;-70.534;2022-08-27T04:37:23;21.67;;;13.70;;
50884;SDS011;36865;-33.406;-70.534;2022-08-27T04:39:51;21.77;;;13.15;;
50884;SDS011;36865;-33.406;-70.534;2022-08-27T04:42:18;20.90;;;12.40;;
50884;SDS011;36865;-33.406;-70.534;2022-08-27T04:44:45;20.83;;;11.90;;
50884;SDS011;36865;-33.406;-70.534;2022-08-27T04:47:12;19.83;;;12.02;;
50884;SDS011;36865;-33.406;-70.534;2022-08-27T04:49:41;19.95;;;12.30;;
50884;SDS011;36865;-33.406;-70.534;2022-08-27T04:52:08;19.95;;;11.88;;
50884;SDS011;36865;-33.406;-70.534;2022-08-27T04:54:34;21.30;;;12.98;;
50884;SDS011;36865;-33.406;-70.534;2022-08-27T04:57:02;19.90;;;11.85;;
50884;SDS011;36865;-33.406;-70.534;2022-08-27T04:59:29;19.88;;;11.10;;
50884;SDS011;36865;-33.406;-70.534;2022-08-27T05:01:57;18.80;;;11.10;;
50884;SDS011;36865;-33.406;-70.534;2022-08-27T05:04:25;17.60;;;9.80;;
50884;SDS011;36865;-33.406;-70.534;2022-08-27T05:06:53;18.25;;;10.55;;
50884;SDS011;36865;-33.406;-70.534;2022-08-27T05:09:20;16.52;;;9.45;;
50884;SDS011;36865;-33.406;-70.534;2022-08-27T05:11:47;19.00;;;10.63;;
50884;SDS011;36865;-33.406;-70.534;2022-08-27T05:14:14;18.15;;;10.30;;
50884;SDS011;36865;-33.406;-70.534;2022-08-27T05:16:41;17.80;;;10.30;;
50884;SDS011;36865;-33.406;-70.534;2022-08-27T05:19:11;19.05;;;10.70;;
50884;SDS011;36865;-33.406;-70.534;2022-08-27T05:21:48;18.88;;;11.15;;
50884;SDS011;36865;-33.406;-70.534;2022-08-27T05:24:16;17.85;;;10.35;;
50884;SDS011;36865;-33.406;-70.534;2022-08-27T05:26:46;17.02;;;10.02;;
50884;SDS011;36865;-33.406;-70.534;2022-08-27T05:29:13;15.73;;;9.07;;
50884;SDS011;36865;-33.406;-70.534;2022-08-27T05:31:40;16.67;;;9.55;;
50884;SDS011;36865;-33.406;-70.534;2022-08-27T05:34:07;17.90;;;9.70;;
50884;SDS011;36865;-33.406;-70.534;2022-08-27T05:36:34;15.82;;;9.20;;
50884;SDS011;36865;-33.406;-70.534;2022-08-27T05:39:02;17.33;;;10.00;;
50884;SDS011;36865;-33.406;-70.534;2022-08-27T05:41:30;16.65;;;9.07;;
50884;SDS011;36865;-33.406;-70.534;2022-08-27T05:43:59;17.95;;;9.77;;
50884;SDS011;36865;-33.406;-70.534;2022-08-27T05:46:33;15.52;;;8.93;;
50884;SDS011;36865;-33.406;-70.534;2022-08-27T05:49:02;15.65;;;9.05;;
50884;SDS011;36865;-33.406;-70.534;2022-08-27T05:51:30;14.75;;;8.20;;
50884;SDS011;36865;-33.406;-70.534;2022-08-27T05:53:59;15.98;;;8.38;;
50884;SDS011;36865;-33.406;-70.534;2022-08-27T05:56:28;15.73;;;8.23;;
50884;SDS011;36865;-33.406;-70.534;2022-08-27T05:58:55;15.35;;;8.43;;
50884;SDS011;36865;-33.406;-70.534;2022-08-27T06:01:42;15.65;;;8.43;;
50884;SDS011;36865;-33.406;-70.534;2022-08-27T06:04:14;17.15;;;9.85;;
50884;SDS011;36865;-33.406;-70.534;2022-08-27T06:06:42;17.70;;;9.35;;
50884;SDS011;36865;-33.406;-70.534;2022-08-27T06:09:13;15.85;;;9.38;;
50884;SDS011;36865;-33.406;-70.534;2022-08-27T06:11:41;16.58;;;9.77;;
50884;SDS011;36865;-33.406;-70.534;2022-08-27T06:14:08;17.92;;;10.02;;
50884;SDS011;36865;-33.406;-70.534;2022-08-27T06:16:36;24.58;;;14.60;;
50884;SDS011;36865;-33.406;-70.534;2022-08-27T06:19:04;23.42;;;14.30;;
50884;SDS011;36865;-33.406;-70.534;2022-08-27T06:21:31;21.95;;;12.75;;
50884;SDS011;36865;-33.406;-70.534;2022-08-27T06:23:59;19.80;;;11.95;;
50884;SDS011;36865;-33.406;-70.534;2022-08-27T06:26:26;20.75;;;12.45;;
50884;SDS011;36865;-33.406;-70.534;2022-08-27T06:28:53;22.33;;;13.20;;
50884;SDS011;36865;-33.406;-70.534;2022-08-27T06:31:24;21.35;;;13.57;;
50884;SDS011;36865;-33.406;-70.534;2022-08-27T06:33:52;25.60;;;16.27;;
50884;SDS011;36865;-33.406;-70.534;2022-08-27T06:36:23;25.27;;;16.00;;
50884;SDS011;36865;-33.406;-70.534;2022-08-27T06:38:50;24.30;;;14.43;;
50884;SDS011;36865;-33.406;-70.534;2022-08-27T06:41:19;21.52;;;13.57;;
50884;SDS011;36865;-33.406;-70.534;2022-08-27T06:43:47;21.88;;;13.30;;
50884;SDS011;36865;-33.406;-70.534;2022-08-27T06:46:15;22.58;;;14.20;;
50884;SDS011;36865;-33.406;-70.534;2022-08-27T06:48:43;23.13;;;14.38;;
50884;SDS011;36865;-33.406;-70.534;2022-08-27T06:51:15;22.58;;;14.10;;
50884;SDS011;36865;-33.406;-70.534;2022-08-27T06:53:43;21.65;;;13.35;;
50884;SDS011;36865;-33.406;-70.534;2022-08-27T06:56:12;22.38;;;13.27;;
50884;SDS011;36865;-33.406;-70.534;2022-08-27T06:58:39;23.20;;;13.88;;
50884;SDS011;36865;-33.406;-70.534;2022-08-27T07:03:40;21.65;;;13.60;;
50884;SDS011;36865;-33.406;-70.534;2022-08-27T07:06:08;20.98;;;12.35;;
50884;SDS011;36865;-33.406;-70.534;2022-08-27T07:08:36;19.42;;;12.30;;
50884;SDS011;36865;-33.406;-70.534;2022-08-27T07:11:04;19.73;;;12.27;;
50884;SDS011;36865;-33.406;-70.534;2022-08-27T07:13:33;19.15;;;11.70;;
50884;SDS011;36865;-33.406;-70.534;2022-08-27T07:16:04;18.33;;;11.10;;
50884;SDS011;36865;-33.406;-70.534;2022-08-27T07:18:31;18.13;;;10.90;;
50884;SDS011;36865;-33.406;-70.534;2022-08-27T07:20:59;18.08;;;10.52;;
50884;SDS011;36865;-33.406;-70.534;2022-08-27T07:23:25;17.48;;;10.57;;
50884;SDS011;36865;-33.406;-70.534;2022-08-27T07:25:52;18.13;;;10.55;;
50884;SDS011;36865;-33.406;-70.534;2022-08-27T07:28:19;17.67;;;10.25;;
50884;SDS011;36865;-33.406;-70.534;2022-08-27T07:30:45;16.90;;;9.98;;
50884;SDS011;36865;-33.406;-70.534;2022-08-27T07:33:12;18.63;;;10.85;;
50884;SDS011;36865;-33.406;-70.534;2022-08-27T07:35:39;16.88;;;9.73;;
50884;SDS011;36865;-33.406;-70.534;2022-08-27T07:38:09;16.90;;;9.52;;
50884;SDS011;36865;-33.406;-70.534;2022-08-27T07:40:36;18.42;;;10.30;;
50884;SDS011;36865;-33.406;-70.534;2022-08-27T07:43:06;17.48;;;10.50;;
50884;SDS011;36865;-33.406;-70.534;2022-08-27T07:45:51;17.35;;;10.85;;
50884;SDS011;36865;-33.406;-70.534;2022-08-27T07:48:21;16.52;;;9.85;;
50884;SDS011;36865;-33.406;-70.534;2022-08-27T07:50:48;18.85;;;10.32;;
50884;SDS011;36865;-33.406;-70.534;2022-08-27T07:53:15;18.85;;;11.02;;
50884;SDS011;36865;-33.406;-70.534;2022-08-27T07:55:42;16.65;;;10.02;;
50884;SDS011;36865;-33.406;-70.534;2022-08-27T07:58:09;19.20;;;11.40;;
50884;SDS011;36865;-33.406;-70.534;2022-08-27T08:00:36;17.35;;;10.20;;
50884;SDS011;36865;-33.406;-70.534;2022-08-27T08:03:05;18.45;;;10.80;;
50884;SDS011;36865;-33.406;-70.534;2022-08-27T08:05:31;17.52;;;10.20;;
50884;SDS011;36865;-33.406;-70.534;2022-08-27T08:07:58;18.98;;;10.80;;
50884;SDS011;36865;-33.406;-70.534;2022-08-27T08:10:25;18.55;;;11.25;;
50884;SDS011;36865;-33.406;-70.534;2022-08-27T08:12:51;18.85;;;11.63;;
50884;SDS011;36865;-33.406;-70.534;2022-08-27T08:15:18;19.85;;;11.50;;
50884;SDS011;36865;-33.406;-70.534;2022-08-27T08:17:45;20.02;;;11.85;;
50884;SDS011;36865;-33.406;-70.534;2022-08-27T08:20:12;20.63;;;12.23;;
50884;SDS011;36865;-33.406;-70.534;2022-08-27T08:22:40;19.27;;;11.55;;
50884;SDS011;36865;-33.406;-70.534;2022-08-27T08:25:07;20.98;;;12.57;;
50884;SDS011;36865;-33.406;-70.534;2022-08-27T08:27:34;21.98;;;13.30;;
50884;SDS011;36865;-33.406;-70.534;2022-08-27T08:30:01;21.27;;;12.30;;
50884;SDS011;36865;-33.406;-70.534;2022-08-27T08:32:27;22.17;;;13.32;;
50884;SDS011;36865;-33.406;-70.534;2022-08-27T08:34:54;22.63;;;12.82;;
50884;SDS011;36865;-33.406;-70.534;2022-08-27T08:37:21;20.90;;;12.05;;
50884;SDS011;36865;-33.406;-70.534;2022-08-27T08:39:48;26.88;;;15.82;;
50884;SDS011;36865;-33.406;-70.534;2022-08-27T08:45:11;22.58;;;13.32;;
50884;SDS011;36865;-33.406;-70.534;2022-08-27T08:47:44;23.55;;;13.48;;
50884;SDS011;36865;-33.406;-70.534;2022-08-27T08:56:02;35.15;;;20.63;;
50884;SDS011;36865;-33.406;-70.534;2022-08-27T09:01:14;29.47;;;17.47;;
50884;SDS011;36865;-33.406;-70.534;2022-08-27T09:03:55;26.30;;;15.43;;
50884;SDS011;36865;-33.406;-70.534;2022-08-27T09:08:52;24.10;;;14.57;;
50884;SDS011;36865;-33.406;-70.534;2022-08-27T09:14:02;24.85;;;13.85;;
50884;SDS011;36865;-33.406;-70.534;2022-08-27T09:16:33;24.25;;;13.68;;
50884;SDS011;36865;-33.406;-70.534;2022-08-27T09:19:00;22.02;;;13.13;;
50884;SDS011;36865;-33.406;-70.534;2022-08-27T09:24:13;27.40;;;16.08;;
50884;SDS011;36865;-33.406;-70.534;2022-08-27T09:26:46;28.60;;;17.27;;
50884;SDS011;36865;-33.406;-70.534;2022-08-27T09:29:14;33.53;;;19.92;;
50884;SDS011;36865;-33.406;-70.534;2022-08-27T09:34:37;28.83;;;18.48;;
50884;SDS011;36865;-33.406;-70.534;2022-08-27T09:44:55;24.08;;;14.65;;
50884;SDS011;36865;-33.406;-70.534;2022-08-27T09:47:22;22.30;;;13.20;;
50884;SDS011;36865;-33.406;-70.534;2022-08-27T09:49:59;22.90;;;13.00;;
50884;SDS011;36865;-33.406;-70.534;2022-08-27T09:52:32;21.95;;;13.05;;
50884;SDS011;36865;-33.406;-70.534;2022-08-27T09:55:10;21.00;;;12.00;;
50884;SDS011;36865;-33.406;-70.534;2022-08-27T09:57:39;19.25;;;11.57;;
50884;SDS011;36865;-33.406;-70.534;2022-08-27T10:00:07;18.80;;;11.07;;
50884;SDS011;36865;-33.406;-70.534;2022-08-27T10:02:50;18.67;;;10.32;;
50884;SDS011;36865;-33.406;-70.534;2022-08-27T10:05:21;18.45;;;10.65;;
50884;SDS011;36865;-33.406;-70.534;2022-08-27T10:07:57;19.40;;;11.02;;
50884;SDS011;36865;-33.406;-70.534;2022-08-27T10:19:10;23.90;;;14.75;;
50884;SDS011;36865;-33.406;-70.534;2022-08-27T10:21:59;32.40;;;19.77;;
50884;SDS011;36865;-33.406;-70.534;2022-08-27T10:30:08;32.97;;;21.92;;
50884;SDS011;36865;-33.406;-70.534;2022-08-27T10:32:41;34.50;;;21.98;;
50884;SDS011;36865;-33.406;-70.534;2022-08-27T10:35:48;32.40;;;20.33;;
50884;SDS011;36865;-33.406;-70.534;2022-08-27T10:38:37;33.15;;;20.80;;
50884;SDS011;36865;-33.406;-70.534;2022-08-27T10:44:09;31.38;;;19.65;;
50884;SDS011;36865;-33.406;-70.534;2022-08-27T10:46:47;31.23;;;19.50;;
50884;SDS011;36865;-33.406;-70.534;2022-08-27T11:00:16;25.75;;;16.10;;
50884;SDS011;36865;-33.406;-70.534;2022-08-27T11:02:47;26.00;;;16.20;;
50884;SDS011;36865;-33.406;-70.534;2022-08-27T11:05:20;23.13;;;14.65;;
50884;SDS011;36865;-33.406;-70.534;2022-08-27T11:07:57;23.85;;;14.38;;
50884;SDS011;36865;-33.406;-70.534;2022-08-27T11:10:36;20.88;;;12.27;;
50884;SDS011;36865;-33.406;-70.534;2022-08-27T11:13:09;21.17;;;12.93;;
50884;SDS011;36865;-33.406;-70.534;2022-08-27T11:15:42;19.52;;;11.70;;
50884;SDS011;36865;-33.406;-70.534;2022-08-27T11:18:14;19.00;;;11.18;;
50884;SDS011;36865;-33.406;-70.534;2022-08-27T11:23:34;24.67;;;14.73;;
50884;SDS011;36865;-33.406;-70.534;2022-08-27T11:26:22;27.35;;;16.42;;
50884;SDS011;36865;-33.406;-70.534;2022-08-27T11:28:59;25.23;;;15.23;;
50884;SDS011;36865;-33.406;-70.534;2022-08-27T11:31:42;25.83;;;17.05;;
50884;SDS011;36865;-33.406;-70.534;2022-08-27T11:45:15;31.30;;;19.85;;
50884;SDS011;36865;-33.406;-70.534;2022-08-27T11:47:58;30.33;;;19.20;;
50884;SDS011;36865;-33.406;-70.534;2022-08-27T11:50:26;36.85;;;22.15;;
50884;SDS011;36865;-33.406;-70.534;2022-08-27T11:53:02;38.30;;;24.23;;
50884;SDS011;36865;-33.406;-70.534;2022-08-27T11:55:31;37.28;;;23.63;;
50884;SDS011;36865;-33.406;-70.534;2022-08-27T11:58:05;33.35;;;20.58;;
50884;SDS011;36865;-33.406;-70.534;2022-08-27T12:00:46;33.20;;;19.38;;
50884;SDS011;36865;-33.406;-70.534;2022-08-27T12:03:27;31.08;;;17.75;;
50884;SDS011;36865;-33.406;-70.534;2022-08-27T12:24:50;25.08;;;14.05;;
50884;SDS011;36865;-33.406;-70.534;2022-08-27T12:29:56;29.90;;;17.33;;
50884;SDS011;36865;-33.406;-70.534;2022-08-27T12:32:30;26.98;;;15.35;;
50884;SDS011;36865;-33.406;-70.534;2022-08-27T12:35:11;25.63;;;14.25;;
50884;SDS011;36865;-33.406;-70.534;2022-08-27T12:37:41;26.08;;;13.80;;
50884;SDS011;36865;-33.406;-70.534;2022-08-27T12:42:48;25.15;;;13.75;;
50884;SDS011;36865;-33.406;-70.534;2022-08-27T12:45:22;24.42;;;14.55;;
50884;SDS011;36865;-33.406;-70.534;2022-08-27T12:47:51;25.50;;;15.02;;
50884;SDS011;36865;-33.406;-70.534;2022-08-27T12:50:19;26.38;;;15.10;;
50884;SDS011;36865;-33.406;-70.534;2022-08-27T12:55:44;26.15;;;15.45;;
50884;SDS011;36865;-33.406;-70.534;2022-08-27T13:00:55;27.27;;;15.73;;
50884;SDS011;36865;-33.406;-70.534;2022-08-27T13:03:32;28.13;;;16.80;;
50884;SDS011;36865;-33.406;-70.534;2022-08-27T13:06:00;24.77;;;14.75;;
50884;SDS011;36865;-33.406;-70.534;2022-08-27T13:08:34;28.40;;;15.80;;
50884;SDS011;36865;-33.406;-70.534;2022-08-27T13:11:34;22.73;;;13.82;;
50884;SDS011;36865;-33.406;-70.534;2022-08-27T13:14:11;31.85;;;19.48;;
50884;SDS011;36865;-33.406;-70.534;2022-08-27T13:17:24;28.77;;;17.40;;
50884;SDS011;36865;-33.406;-70.534;2022-08-27T13:22:01;28.33;;;17.65;;
50884;SDS011;36865;-33.406;-70.534;2022-08-27T13:24:34;40.70;;;24.55;;
50884;SDS011;36865;-33.406;-70.534;2022-08-27T13:27:12;38.78;;;24.95;;
50884;SDS011;36865;-33.406;-70.534;2022-08-27T13:29:39;39.70;;;24.20;;
50884;SDS011;36865;-33.406;-70.534;2022-08-27T13:32:10;35.22;;;22.00;;
50884;SDS011;36865;-33.406;-70.534;2022-08-27T13:34:38;31.83;;;19.75;;
50884;SDS011;36865;-33.406;-70.534;2022-08-27T13:37:06;37.47;;;22.65;;
50884;SDS011;36865;-33.406;-70.534;2022-08-27T13:40:03;33.08;;;20.55;;
50884;SDS011;36865;-33.406;-70.534;2022-08-27T13:42:30;32.47;;;19.58;;
50884;SDS011;36865;-33.406;-70.534;2022-08-27T13:45:02;31.23;;;18.42;;
50884;SDS011;36865;-33.406;-70.534;2022-08-27T13:47:29;31.95;;;19.50;;
50884;SDS011;36865;-33.406;-70.534;2022-08-27T13:50:09;33.33;;;20.95;;
50884;SDS011;36865;-33.406;-70.534;2022-08-27T13:52:47;33.90;;;21.42;;
50884;SDS011;36865;-33.406;-70.534;2022-08-27T13:55:32;35.38;;;22.08;;
50884;SDS011;36865;-33.406;-70.534;2022-08-27T13:57:58;30.83;;;19.77;;
50884;SDS011;36865;-33.406;-70.534;2022-08-27T14:00:31;28.60;;;18.25;;
50884;SDS011;36865;-33.406;-70.534;2022-08-27T14:02:58;29.90;;;18.00;;
50884;SDS011;36865;-33.406;-70.534;2022-08-27T14:05:29;34.22;;;21.98;;
50884;SDS011;36865;-33.406;-70.534;2022-08-27T14:08:09;33.60;;;21.88;;
50884;SDS011;36865;-33.406;-70.534;2022-08-27T14:10:43;37.50;;;24.00;;
50884;SDS011;36865;-33.406;-70.534;2022-08-27T14:15:43;33.47;;;21.63;;
50884;SDS011;36865;-33.406;-70.534;2022-08-27T14:20:46;34.30;;;22.40;;
50884;SDS011;36865;-33.406;-70.534;2022-08-27T14:23:13;33.10;;;21.50;;
50884;SDS011;36865;-33.406;-70.534;2022-08-27T14:25:42;33.83;;;21.65;;
50884;SDS011;36865;-33.406;-70.534;2022-08-27T14:28:12;32.58;;;21.88;;
50884;SDS011;36865;-33.406;-70.534;2022-08-27T14:30:39;39.63;;;24.40;;
50884;SDS011;36865;-33.406;-70.534;2022-08-27T14:33:05;32.97;;;22.23;;
50884;SDS011;36865;-33.406;-70.534;2022-08-27T14:35:33;34.45;;;22.75;;
50884;SDS011;36865;-33.406;-70.534;2022-08-27T14:38:04;31.95;;;19.85;;
50884;SDS011;36865;-33.406;-70.534;2022-08-27T14:40:35;36.50;;;25.17;;
50884;SDS011;36865;-33.406;-70.534;2022-08-27T14:43:13;33.53;;;22.85;;
50884;SDS011;36865;-33.406;-70.534;2022-08-27T14:45:40;34.22;;;23.42;;
50884;SDS011;36865;-33.406;-70.534;2022-08-27T14:48:09;30.00;;;21.08;;
50884;SDS011;36865;-33.406;-70.534;2022-08-27T14:50:38;32.10;;;21.90;;
50884;SDS011;36865;-33.406;-70.534;2022-08-27T14:53:06;31.60;;;22.05;;
50884;SDS011;36865;-33.406;-70.534;2022-08-27T14:55:33;31.33;;;20.80;;
50884;SDS011;36865;-33.406;-70.534;2022-08-27T14:58:00;30.73;;;20.90;;
50884;SDS011;36865;-33.406;-70.534;2022-08-27T15:00:29;29.73;;;19.38;;
50884;SDS011;36865;-33.406;-70.534;2022-08-27T15:03:05;33.13;;;22.25;;
50884;SDS011;36865;-33.406;-70.534;2022-08-27T15:05:34;33.30;;;22.17;;
50884;SDS011;36865;-33.406;-70.534;2022-08-27T15:08:04;31.98;;;21.88;;
50884;SDS011;36865;-33.406;-70.534;2022-08-27T15:10:31;32.10;;;21.67;;
50884;SDS011;36865;-33.406;-70.534;2022-08-27T15:13:02;30.17;;;20.52;;
50884;SDS011;36865;-33.406;-70.534;2022-08-27T15:15:45;29.52;;;19.65;;
50884;SDS011;36865;-33.406;-70.534;2022-08-27T15:19:07;31.17;;;20.75;;
50884;SDS011;36865;-33.406;-70.534;2022-08-27T15:25:08;29.73;;;20.30;;
50884;SDS011;36865;-33.406;-70.534;2022-08-27T15:27:55;31.15;;;21.23;;
50884;SDS011;36865;-33.406;-70.534;2022-08-27T15:30:29;32.97;;;21.70;;
50884;SDS011;36865;-33.406;-70.534;2022-08-27T15:32:58;31.33;;;21.67;;
50884;SDS011;36865;-33.406;-70.534;2022-08-27T15:35:46;32.55;;;21.15;;
50884;SDS011;36865;-33.406;-70.534;2022-08-27T15:45:37;35.25;;;24.65;;
50884;SDS011;36865;-33.406;-70.534;2022-08-27T15:48:03;35.78;;;24.63;;
50884;SDS011;36865;-33.406;-70.534;2022-08-27T15:50:30;36.08;;;24.67;;
50884;SDS011;36865;-33.406;-70.534;2022-08-27T15:53:00;34.77;;;23.57;;
50884;SDS011;36865;-33.406;-70.534;2022-08-27T15:55:36;35.22;;;23.52;;
50884;SDS011;36865;-33.406;-70.534;2022-08-27T16:01:28;35.28;;;25.10;;
50884;SDS011;36865;-33.406;-70.534;2022-08-27T16:03:59;33.88;;;23.40;;
50884;SDS011;36865;-33.406;-70.534;2022-08-27T16:13:33;29.95;;;20.55;;
50884;SDS011;36865;-33.406;-70.534;2022-08-27T16:16:03;29.42;;;20.25;;
50884;SDS011;36865;-33.406;-70.534;2022-08-27T16:21:33;35.30;;;23.63;;
50884;SDS011;36865;-33.406;-70.534;2022-08-27T16:29:29;30.92;;;20.73;;
50884;SDS011;36865;-33.406;-70.534;2022-08-27T16:32:06;32.78;;;21.27;;
50884;SDS011;36865;-33.406;-70.534;2022-08-27T16:37:44;30.50;;;20.33;;
50884;SDS011;36865;-33.406;-70.534;2022-08-27T16:42:45;34.67;;;23.88;;